Time;durP1;ratioP1;P1;durP2;ratioP2;P2;SDS_P1;SDS_P2;PMS_P1;PMS_P2;Temp;Humidity;BMP_temperature;BMP_pressure;BME280_temperature;BME280_humidity;BME280_pressure;Samples;Min_cycle;Max_cycle;Signal;HPM_P1;HPM_P2
2021/06/28 00:01:13;;;;;;;11.60;10.40;;;;;;;22.53;79.80;100260.11;1783498;80;20845;-69
2021/06/28 00:03:41;;;;;;;19.52;11.00;;;;;;;22.53;79.88;100261.44;1783837;80;20972;-71
2021/06/28 00:06:08;;;;;;;11.85;10.60;;;;;;;22.51;79.83;100262.63;1783523;80;21006;-70
2021/06/28 00:08:37;;;;;;;15.35;10.88;;;;;;;22.49;79.86;100264.14;1783419;80;21157;-71
2021/06/28 00:11:07;;;;;;;13.05;10.72;;;;;;;22.48;79.88;100267.02;1783515;80;20884;-72
2021/06/28 00:13:37;;;;;;;16.23;11.53;;;;;;;22.47;79.88;100264.00;1716574;82;20917;-70
2021/06/28 00:16:05;;;;;;;12.98;11.28;;;;;;;22.44;79.91;100265.70;1783509;80;20923;-71
2021/06/28 00:18:33;;;;;;;15.50;11.85;;;;;;;22.43;79.94;100266.70;1783591;80;21354;-71
2021/06/28 00:21:01;;;;;;;18.00;11.90;;;;;;;22.40;79.98;100265.22;1783476;80;21570;-70
2021/06/28 00:23:28;;;;;;;18.82;13.35;;;;;;;22.39;80.07;100262.23;1783359;80;20991;-70
2021/06/28 00:25:56;;;;;;;14.70;12.43;;;;;;;22.39;80.08;100268.05;1783485;80;20852;-71
2021/06/28 00:28:25;;;;;;;13.95;12.50;;;;;;;22.38;80.12;100265.07;1783504;80;20868;-71
2021/06/28 00:30:55;;;;;;;20.82;12.73;;;;;;;22.35;80.12;100268.42;1783564;80;20856;-70
2021/06/28 00:33:22;;;;;;;19.50;13.08;;;;;;;22.33;80.23;100263.76;1783590;80;21171;-69
2021/06/28 00:35:49;;;;;;;14.85;12.65;;;;;;;22.32;80.31;100258.10;1783671;80;20983;-71
2021/06/28 00:38:18;;;;;;;24.05;14.23;;;;;;;22.30;80.36;100255.28;1783515;80;21464;-70
2021/06/28 00:40:46;;;;;;;16.80;13.13;;;;;;;22.28;80.38;100258.13;1783861;80;20900;-72
2021/06/28 00:43:12;;;;;;;15.43;12.82;;;;;;;22.26;80.41;100261.98;1783490;80;20852;-72
2021/06/28 00:45:42;;;;;;;20.48;13.70;;;;;;;22.25;80.43;100261.13;1783396;80;22000;-71
2021/06/28 00:48:12;;;;;;;22.67;13.70;;;;;;;22.24;80.50;100264.83;1783386;80;20932;-70
2021/06/28 00:50:44;;;;;;;16.67;14.30;;;;;;;22.22;80.50;100262.83;1783730;80;20888;-71
2021/06/28 00:53:14;;;;;;;22.45;16.07;;;;;;;22.21;80.55;100270.50;1782901;80;20876;-71
2021/06/28 00:55:42;;;;;;;15.68;14.00;;;;;;;22.20;80.60;100272.00;1783757;80;20912;-71
2021/06/28 00:58:09;;;;;;;17.70;14.73;;;;;;;22.17;80.68;100270.52;1783433;80;21156;-71
2021/06/28 01:00:36;;;;;;;20.50;14.93;;;;;;;22.13;80.70;100277.22;1783690;80;20928;-71
2021/06/28 01:03:03;;;;;;;23.83;15.48;;;;;;;22.12;80.78;100271.53;1783507;80;20997;-71
2021/06/28 01:05:32;;;;;;;15.93;14.53;;;;;;;22.10;80.89;100276.25;1783321;80;20916;-71
2021/06/28 01:08:00;;;;;;;16.32;14.50;;;;;;;22.09;80.89;100279.91;1783836;80;20849;-71
2021/06/28 01:10:28;;;;;;;19.40;15.58;;;;;;;22.07;80.97;100277.91;1783830;80;21555;-70
2021/06/28 01:12:55;;;;;;;16.05;14.43;;;;;;;22.05;80.96;100278.08;1783671;80;20904;-71
2021/06/28 01:15:23;;;;;;;20.48;14.78;;;;;;;22.02;81.04;100277.62;1783739;80;20908;-70
2021/06/28 01:17:50;;;;;;;19.92;14.60;;;;;;;22.00;81.10;100271.62;1783913;80;20955;-70
2021/06/28 01:20:21;;;;;;;18.82;14.70;;;;;;;21.99;81.09;100278.80;1783727;80;20912;-70
2021/06/28 01:22:52;;;;;;;18.07;14.65;;;;;;;21.96;81.12;100282.31;1783720;80;21144;-71
2021/06/28 01:25:21;;;;;;;17.12;14.23;;;;;;;21.93;81.19;100285.66;1783522;80;20916;-72
2021/06/28 01:27:48;;;;;;;24.80;16.60;;;;;;;21.92;81.21;100291.16;1784184;80;20960;-70
2021/06/28 01:30:22;;;;;;;19.17;15.20;;;;;;;21.92;81.26;100292.02;1783828;80;20857;-71
2021/06/28 01:32:49;;;;;;;24.00;17.42;;;;;;;21.91;81.26;100286.84;1784258;80;20932;-71
2021/06/28 01:35:17;;;;;;;23.60;17.10;;;;;;;21.90;81.30;100294.03;1784064;80;21074;-69
2021/06/28 01:37:45;;;;;;;22.40;16.77;;;;;;;21.92;81.37;100296.50;1783792;80;20872;-71
2021/06/28 01:40:12;;;;;;;20.23;16.32;;;;;;;21.91;81.41;100297.52;1783939;80;20884;-70
2021/06/28 01:42:40;;;;;;;21.60;17.05;;;;;;;21.93;81.41;100295.52;1783913;80;20880;-71
2021/06/28 01:45:09;;;;;;;29.52;17.50;;;;;;;21.92;81.39;100301.36;1783838;80;20868;-71
2021/06/28 01:47:37;;;;;;;22.32;16.60;;;;;;;21.93;81.33;100300.85;1784117;80;21107;-71
2021/06/28 01:50:06;;;;;;;22.27;16.75;;;;;;;21.93;81.32;100305.69;1783803;80;21433;-70
2021/06/28 01:52:33;;;;;;;20.57;17.32;;;;;;;21.94;81.32;100304.70;1784253;80;20892;-71
2021/06/28 01:55:00;;;;;;;20.45;18.05;;;;;;;21.93;81.33;100303.02;1783800;80;20924;-70
2021/06/28 01:57:27;;;;;;;18.90;15.72;;;;;;;21.95;81.29;100318.87;1784156;79;21409;-71
2021/06/28 01:59:54;;;;;;;20.50;17.07;;;;;;;21.94;81.29;100317.19;1783836;80;21136;-71
2021/06/28 02:02:21;;;;;;;25.52;16.93;;;;;;;21.94;81.31;100319.38;1784142;80;20912;-70
2021/06/28 02:04:48;;;;;;;22.27;16.62;;;;;;;21.94;81.32;100316.71;1783815;80;20860;-70
2021/06/28 02:07:16;;;;;;;23.50;17.67;;;;;;;21.96;81.39;100317.85;1777193;80;21387;-72
2021/06/28 02:09:43;;;;;;;20.60;17.73;;;;;;;21.97;81.39;100320.87;1775283;80;20927;-70
2021/06/28 02:12:10;;;;;;;24.75;18.37;;;;;;;21.98;81.39;100319.02;1775680;80;21753;-70
2021/06/28 02:14:37;;;;;;;22.25;17.75;;;;;;;21.99;81.38;100326.02;1775232;80;20924;-71
2021/06/28 02:17:04;;;;;;;22.27;17.60;;;;;;;22.01;81.47;100327.53;1775608;80;20876;-72
2021/06/28 02:19:31;;;;;;;24.00;17.92;;;;;;;22.02;81.46;100327.84;1775260;80;21422;-71
2021/06/28 02:21:57;;;;;;;22.85;18.23;;;;;;;22.04;81.43;100327.17;1775659;80;20943;-71
2021/06/28 02:24:24;;;;;;;24.10;18.70;;;;;;;22.07;81.42;100334.00;1775320;80;21033;-71
2021/06/28 02:26:51;;;;;;;23.52;18.20;;;;;;;22.08;81.43;100331.16;1775232;80;21015;-71
2021/06/28 02:29:18;;;;;;;24.67;20.52;;;;;;;22.11;81.42;100329.97;1775568;80;20968;-70
2021/06/28 02:31:45;;;;;;;23.30;20.62;;;;;;;22.12;81.44;100326.28;1775258;80;20932;-70
2021/06/28 02:34:12;;;;;;;32.33;21.52;;;;;;;22.13;81.36;100326.12;1775429;80;20987;-70
2021/06/28 02:36:41;;;;;;;24.72;20.62;;;;;;;22.17;81.30;100332.47;1775295;80;20877;-71
2021/06/28 02:39:08;;;;;;;26.42;21.12;;;;;;;22.18;81.32;100334.94;1775589;80;21601;-71
2021/06/28 02:41:36;;;;;;;27.17;21.75;;;;;;;22.19;81.26;100337.10;1775281;80;21094;-70
2021/06/28 02:44:04;;;;;;;24.05;21.30;;;;;;;22.19;81.32;100335.77;1775328;80;20884;-71
2021/06/28 02:46:31;;;;;;;28.45;21.80;;;;;;;22.19;81.36;100337.95;1775358;80;21456;-70
2021/06/28 02:48:58;;;;;;;31.10;21.57;;;;;;;22.19;81.42;100339.30;1775385;80;21196;-71
2021/06/28 02:51:26;;;;;;;23.77;20.88;;;;;;;22.20;81.50;100333.44;1775474;80;20833;-71
2021/06/28 02:53:54;;;;;;;25.20;20.85;;;;;;;22.20;81.53;100343.61;1775242;80;20896;-71
2021/06/28 02:56:20;;;;;;;29.07;23.30;;;;;;;22.21;81.61;100340.43;1775333;80;20995;-70
2021/06/28 02:58:52;;;;;;;26.93;21.80;;;;;;;22.21;81.67;100347.11;1775573;80;20935;-71
2021/06/28 03:01:21;;;;;;;33.20;23.87;;;;;;;22.21;81.76;100346.63;1774702;80;21125;-71
2021/06/28 03:03:48;;;;;;;28.55;20.45;;;;;;;22.21;81.95;100343.95;1775214;80;20936;-71
2021/06/28 03:06:15;;;;;;;22.25;19.77;;;;;;;22.22;81.99;100350.16;1775361;80;20937;-71
2021/06/28 03:08:43;;;;;;;25.25;19.25;;;;;;;22.23;82.11;100349.14;1775294;80;20928;-70
2021/06/28 03:11:14;;;;;;;24.47;19.00;;;;;;;22.26;82.11;100343.47;1775312;80;20889;-71
2021/06/28 03:13:41;;;;;;;25.45;17.87;;;;;;;22.25;82.14;100339.94;1775907;80;21140;-69
2021/06/28 03:16:09;;;;;;;21.82;17.57;;;;;;;22.23;82.24;100341.98;1776099;80;21397;-71
2021/06/28 03:18:36;;;;;;;20.43;15.65;;;;;;;22.21;82.38;100337.77;1775369;80;20936;-72
2021/06/28 03:21:07;;;;;;;22.30;15.28;;;;;;;22.20;82.57;100341.45;1775285;80;21358;-72
2021/06/28 03:23:34;;;;;;;16.73;13.35;;;;;;;22.23;82.46;100345.13;1775324;80;21389;-72
2021/06/28 03:26:01;;;;;;;17.57;14.80;;;;;;;22.24;82.41;100346.30;1775506;80;21371;-72
2021/06/28 03:28:28;;;;;;;14.73;12.85;;;;;;;22.26;82.37;100350.14;1775308;80;20964;-73
2021/06/28 03:30:55;;;;;;;16.40;11.95;;;;;;;22.28;82.31;100350.30;1775232;80;20888;-72
2021/06/28 03:33:22;;;;;;;12.80;10.72;;;;;;;22.30;82.34;100348.80;1775533;80;20845;-73
2021/06/28 03:35:50;;;;;;;17.17;12.50;;;;;;;22.34;82.40;100342.92;1775303;80;21505;-73
2021/06/28 03:38:17;;;;;;;17.10;11.10;;;;;;;22.42;82.25;100350.55;1775564;80;21116;-73
2021/06/28 03:40:46;;;;;;;11.97;10.60;;;;;;;22.46;82.17;100343.86;1775209;80;20888;-72
2021/06/28 03:43:12;;;;;;;13.30;8.83;;;;;;;22.48;82.09;100346.67;1775517;80;20924;-72
2021/06/28 03:45:39;;;;;;;12.23;10.45;;;;;;;22.49;82.13;100348.83;1775212;80;20893;-72
2021/06/28 03:48:10;;;;;;;11.10;9.30;;;;;;;22.50;82.20;100347.81;1775580;80;20892;-72
2021/06/28 03:50:37;;;;;;;14.83;8.30;;;;;;;22.52;82.28;100338.63;1775264;80;21129;-71
2021/06/28 03:53:04;;;;;;;10.20;8.40;;;;;;;22.57;82.31;100340.77;1775100;80;20912;-70
2021/06/28 03:55:31;;;;;;;13.55;7.42;;;;;;;22.63;82.20;100356.08;1775310;80;20888;-71
2021/06/28 03:57:59;;;;;;;12.70;8.98;;;;;;;22.69;81.83;100347.36;1775264;80;20963;-71
2021/06/28 04:00:26;;;;;;;11.33;8.45;;;;;;;22.78;81.71;100341.96;1775254;80;20892;-71
2021/06/28 04:02:58;;;;;;;7.83;7.12;;;;;;;22.89;81.23;100342.88;1775397;80;21194;-71
2021/06/28 04:05:25;;;;;;;12.30;7.45;;;;;;;22.99;80.64;100347.48;1775222;80;20881;-71
2021/06/28 04:07:52;;;;;;;10.70;7.47;;;;;;;23.09;79.92;100346.75;1775339;80;21390;-71
2021/06/28 04:10:21;;;;;;;7.47;6.78;;;;;;;23.22;79.58;100347.47;1775184;80;20928;-68
2021/06/28 04:12:50;;;;;;;9.40;7.60;;;;;;;23.50;78.86;100350.39;1775637;80;20920;-70
2021/06/28 04:15:18;;;;;;;7.45;6.67;;;;;;;23.93;77.64;100357.30;1775192;80;21138;-71
2021/06/28 04:17:52;;;;;;;7.97;6.80;;;;;;;24.41;76.29;100360.36;1775182;80;20924;-71
2021/06/28 04:20:22;;;;;;;10.13;6.70;;;;;;;24.92;74.31;100348.74;1775175;80;20924;-71
2021/06/28 04:22:49;;;;;;;8.68;6.30;;;;;;;25.47;72.52;100361.05;1775473;80;20976;-73
2021/06/28 04:27:58;;;;;;;6.37;5.77;;;;;;;26.40;68.27;100355.35;1738786;78;21349;31
2021/06/28 04:30:25;;;;;;;7.53;6.83;;;;;;;26.85;66.70;100358.36;1636304;86;21380;-71
2021/06/28 04:32:52;;;;;;;6.55;5.87;;;;;;;27.23;65.18;100362.64;1628936;88;20924;-72
2021/06/28 04:35:25;;;;;;;7.35;6.30;;;;;;;27.56;63.89;100364.48;1630880;88;20963;-71
2021/06/28 04:37:52;;;;;;;8.98;5.53;;;;;;;27.85;62.66;100362.37;1643084;87;20963;-71
2021/06/28 04:40:21;;;;;;;7.95;5.58;;;;;;;28.16;62.03;100363.51;1688612;85;21749;-72
2021/06/28 04:42:50;;;;;;;6.60;6.00;;;;;;;28.41;61.04;100359.54;1688278;85;21035;-72
2021/06/28 04:45:18;;;;;;;6.60;6.03;;;;;;;28.70;60.29;100364.89;1688301;85;21511;-70
2021/06/28 04:47:55;;;;;;;5.78;5.17;;;;;;;28.99;59.34;100366.13;1688233;85;20904;-72
2021/06/28 04:50:23;;;;;;;5.95;5.40;;;;;;;29.22;57.87;100375.56;1686695;83;20892;-71
2021/06/28 04:52:54;;;;;;;10.63;6.25;;;;;;;29.39;57.19;100368.52;1688353;85;21105;-71
2021/06/28 04:55:21;;;;;;;6.45;5.90;;;;;;;29.53;56.33;100361.95;1688563;85;21015;-72
2021/06/28 04:57:50;;;;;;;5.55;5.15;;;;;;;29.71;55.91;100365.23;1688281;83;20999;-73
2021/06/28 05:00:20;;;;;;;6.25;5.75;;;;;;;29.90;55.68;100370.63;1688633;85;20907;-73
2021/06/28 05:02:47;;;;;;;6.80;4.80;;;;;;;30.11;55.18;100358.53;1688481;85;21602;-73
2021/06/28 05:05:15;;;;;;;6.25;5.45;;;;;;;30.34;54.31;100360.55;1688602;85;21140;-73
2021/06/28 05:07:45;;;;;;;7.65;6.22;;;;;;;30.55;53.65;100356.52;1688379;85;21003;-72
2021/06/28 05:10:13;;;;;;;7.03;5.55;;;;;;;30.71;53.23;100357.20;1688633;85;20948;-72
2021/06/28 05:12:40;;;;;;;6.50;5.97;;;;;;;30.89;52.71;100367.70;1688471;85;21034;-71
2021/06/28 05:15:10;;;;;;;6.47;5.83;;;;;;;31.03;52.06;100359.64;1688428;85;21006;-71
2021/06/28 05:17:38;;;;;;;15.78;6.35;;;;;;;31.16;51.49;100365.38;1688403;85;21799;-70
2021/06/28 05:21:37;;;;;;;7.42;6.65;;;;;;;31.41;51.69;100365.14;1816430;79;22553;-72
2021/06/28 05:24:05;;;;;;;8.43;6.62;;;;;;;31.51;51.33;100365.95;1789427;80;20888;-72
2021/06/28 05:26:31;;;;;;;6.95;6.42;;;;;;;31.68;50.39;100364.67;1789470;80;21296;-72
2021/06/28 05:28:59;;;;;;;6.67;6.08;;;;;;;31.82;50.22;100363.38;1789469;80;20971;-71
2021/06/28 05:31:27;;;;;;;6.65;6.12;;;;;;;32.00;49.71;100370.02;1789430;80;20915;-72
2021/06/28 05:33:54;;;;;;;8.70;6.62;;;;;;;32.17;49.42;100370.09;1789427;80;21353;-71
2021/06/28 05:36:21;;;;;;;8.20;7.40;;;;;;;32.36;49.29;100372.07;1790308;80;20904;-71
2021/06/28 05:38:58;;;;;;;7.12;6.58;;;;;;;32.51;48.66;100377.52;1791205;80;21420;-71
2021/06/28 05:41:26;;;;;;;7.50;6.80;;;;;;;32.63;48.42;100383.72;1790458;80;20887;-71
2021/06/28 05:43:54;;;;;;;7.17;6.42;;;;;;;32.71;48.40;100381.98;1790643;80;21377;-71
2021/06/28 05:46:21;;;;;;;7.12;6.42;;;;;;;32.82;47.76;100386.52;1789662;80;20908;-70
2021/06/28 05:48:48;;;;;;;7.60;7.00;;;;;;;32.96;47.60;100381.58;1789384;80;20931;-71
2021/06/28 05:51:18;;;;;;;7.20;6.55;;;;;;;33.04;46.99;100382.54;1789664;80;21154;-71
2021/06/28 05:53:46;;;;;;;7.10;6.50;;;;;;;33.06;47.55;100386.37;1789494;80;21386;-72
2021/06/28 05:56:14;;;;;;;7.15;6.55;;;;;;;33.13;47.64;100383.50;1789815;80;20924;-72
2021/06/28 05:58:41;;;;;;;7.70;6.97;;;;;;;33.01;47.49;100383.02;1789431;80;20994;-72
2021/06/28 06:01:09;;;;;;;8.10;6.67;;;;;;;32.86;47.28;100386.02;1789805;80;20983;-72
2021/06/28 06:03:37;;;;;;;10.93;7.85;;;;;;;32.55;47.72;100393.61;1789381;80;21098;-73
2021/06/28 06:06:05;;;;;;;8.75;8.18;;;;;;;32.17;48.15;100397.73;1789351;80;20920;-70
2021/06/28 06:08:34;;;;;;;8.25;7.60;;;;;;;31.67;49.04;100396.94;1789489;80;20848;-70
2021/06/28 06:11:02;;;;;;;9.88;8.48;;;;;;;31.06;50.14;100390.34;1789729;80;20920;-71
2021/06/28 06:13:31;;;;;;;9.70;8.80;;;;;;;30.56;51.74;100397.41;1789029;80;21428;-71
2021/06/28 06:15:59;;;;;;;9.23;7.97;;;;;;;30.30;52.90;100400.75;1789651;80;21812;-71
2021/06/28 06:18:26;;;;;;;9.53;8.08;;;;;;;30.16;53.83;100401.42;1789892;80;20864;-72
2021/06/28 06:20:53;;;;;;;10.20;8.40;;;;;;;30.20;54.01;100400.45;1757943;80;20893;-71
2021/06/28 06:23:20;;;;;;;9.03;8.13;;;;;;;30.34;53.90;100399.78;1786528;80;20932;-69
2021/06/28 06:25:47;;;;;;;21.77;9.90;;;;;;;30.43;53.65;100399.76;1787064;80;20939;-71
2021/06/28 06:28:14;;;;;;;9.55;8.65;;;;;;;30.36;53.66;100405.79;1787071;80;21097;-69
2021/06/28 06:30:42;;;;;;;9.50;8.80;;;;;;;30.25;52.77;100418.70;1786523;80;20979;-70
2021/06/28 06:33:10;;;;;;;9.35;8.45;;;;;;;30.22;53.16;100417.28;1785727;80;20951;-70
2021/06/28 06:35:36;;;;;;;8.98;8.28;;;;;;;30.36;53.54;100424.73;1785737;80;20908;-70
2021/06/28 06:38:04;;;;;;;18.42;16.70;;;;;;;30.68;53.52;100431.28;1786024;80;20853;-74
2021/06/28 06:40:31;;;;;;;9.45;8.70;;;;;;;30.77;52.04;100427.19;1785751;80;21562;-72
2021/06/28 06:42:58;;;;;;;10.45;9.65;;;;;;;30.72;51.98;100435.19;1786064;80;21384;-72
2021/06/28 06:45:27;;;;;;;9.93;9.13;;;;;;;30.47;52.18;100442.09;1785868;80;21333;-71
2021/06/28 06:47:54;;;;;;;10.20;8.85;;;;;;;30.22;52.57;100440.28;1785705;80;20860;-70
2021/06/28 06:50:23;;;;;;;10.82;9.80;;;;;;;30.16;53.22;100433.87;1785767;80;20933;-71
2021/06/28 06:52:50;;;;;;;9.00;8.20;;;;;;;30.28;52.43;100441.27;1786066;80;21192;-71
2021/06/28 06:55:17;;;;;;;10.88;9.95;;;;;;;30.57;52.87;100445.06;1785660;80;20919;-73
2021/06/28 06:57:44;;;;;;;10.35;9.35;;;;;;;30.93;52.67;100439.30;1785972;80;20896;-73
2021/06/28 07:00:14;;;;;;;10.88;9.68;;;;;;;31.05;51.54;100449.63;1785625;80;21394;-73
2021/06/28 07:02:42;;;;;;;11.33;10.45;;;;;;;30.99;51.20;100446.48;1786098;80;20943;-72
2021/06/28 07:05:10;;;;;;;10.75;9.83;;;;;;;31.02;49.88;100453.34;1785742;80;21986;-73
2021/06/28 07:07:40;;;;;;;11.65;10.65;;;;;;;31.12;50.63;100442.75;1785842;80;20888;-72
2021/06/28 07:10:11;;;;;;;12.15;11.25;;;;;;;31.40;50.00;100450.23;1785921;80;20935;-72
2021/06/28 07:12:41;;;;;;;11.53;10.45;;;;;;;31.56;49.19;100456.88;1785818;80;20912;-73
2021/06/28 07:15:09;;;;;;;11.22;10.35;;;;;;;31.50;48.25;100470.00;1785740;80;20845;-73
2021/06/28 07:17:35;;;;;;;12.07;10.68;;;;;;;31.25;48.87;100472.89;1786015;80;21776;-73
2021/06/28 07:20:05;;;;;;;11.48;10.60;;;;;;;31.04;48.63;100474.23;1785014;80;20888;-71
2021/06/28 07:22:32;;;;;;;11.75;10.82;;;;;;;31.04;49.48;100474.23;1775211;80;21444;-71
2021/06/28 07:24:58;;;;;;;11.38;10.45;;;;;;;31.27;49.79;100476.19;1775224;80;21011;-71
2021/06/28 07:27:25;;;;;;;11.15;10.25;;;;;;;31.63;49.35;100471.13;1775342;80;21394;-72
2021/06/28 07:29:53;;;;;;;11.38;10.23;;;;;;;31.77;48.49;100464.43;1775350;80;21149;-71
2021/06/28 07:32:19;;;;;;;12.23;11.03;;;;;;;31.79;47.89;100469.09;1775265;80;21475;-71
2021/06/28 07:34:46;;;;;;;12.05;10.95;;;;;;;31.72;47.93;100477.03;1775312;80;20900;-72
2021/06/28 07:37:13;;;;;;;11.88;10.63;;;;;;;31.66;49.11;100477.46;1775230;80;20928;-70
2021/06/28 07:39:40;;;;;;;11.60;10.35;;;;;;;31.71;48.32;100466.72;1775492;80;21441;-71
2021/06/28 07:42:07;;;;;;;11.38;10.53;;;;;;;31.89;48.03;100469.84;1775320;80;21190;-71
2021/06/28 07:44:35;;;;;;;11.03;10.15;;;;;;;32.19;47.52;100462.95;1775108;80;20917;-73
2021/06/28 07:47:02;;;;;;;11.55;10.32;;;;;;;32.48;47.38;100471.10;1775266;80;20987;-72
2021/06/28 07:49:29;;;;;;;9.73;8.93;;;;;;;32.75;46.70;100471.41;1775211;80;21433;-72
2021/06/28 07:51:56;;;;;;;9.43;8.63;;;;;;;33.05;45.63;100474.39;1775287;80;21405;-74
2021/06/28 07:54:24;;;;;;;9.18;8.58;;;;;;;33.36;45.20;100469.51;1775541;80;21111;-74
2021/06/28 07:56:52;;;;;;;10.90;8.13;;;;;;;33.54;44.48;100458.38;1775211;80;20920;-76
2021/06/28 07:59:19;;;;;;;8.85;8.18;;;;;;;33.69;44.28;100460.54;1775598;80;20940;-73
2021/06/28 08:01:49;;;;;;;7.60;7.10;;;;;;;33.54;43.71;100462.45;1775248;80;20920;-75
2021/06/28 08:04:16;;;;;;;8.40;7.78;;;;;;;33.57;42.90;100464.69;1775686;80;21449;-74
2021/06/28 08:06:43;;;;;;;9.60;8.78;;;;;;;33.61;42.92;100463.13;1775350;80;21200;-74
2021/06/28 08:09:12;;;;;;;8.28;7.50;;;;;;;33.62;42.85;100465.34;1775194;80;20908;-77
2021/06/28 08:11:39;;;;;;;8.10;7.55;;;;;;;33.73;43.00;100455.41;1775354;80;21507;-80
2021/06/28 08:14:06;;;;;;;7.80;7.17;;;;;;;33.96;43.21;100463.36;1775535;80;20864;-74
2021/06/28 08:16:32;;;;;;;6.70;5.97;;;;;;;34.26;42.65;100468.43;1775376;80;21397;-76
2021/06/28 08:18:59;;;;;;;6.35;5.85;;;;;;;34.45;40.96;100468.91;1775645;80;21456;-76
2021/06/28 08:21:26;;;;;;;7.17;6.50;;;;;;;34.55;39.46;100472.83;1775216;80;20912;-75
2021/06/28 08:23:53;;;;;;;6.60;5.67;;;;;;;34.60;40.61;100467.45;1775503;80;20885;-79
2021/06/28 08:26:20;;;;;;;7.55;6.97;;;;;;;34.48;40.12;100478.47;1775209;80;20995;-76
2021/06/28 08:28:47;;;;;;;8.68;6.45;;;;;;;34.12;40.05;100473.95;1775580;80;20912;-76
2021/06/28 08:31:14;;;;;;;6.12;5.67;;;;;;;33.92;40.68;100471.73;1775209;80;21203;-79
2021/06/28 08:33:43;;;;;;;6.30;5.70;;;;;;;33.88;40.83;100479.30;1775541;80;20888;-75
2021/06/28 08:36:11;;;;;;;5.83;5.33;;;;;;;33.99;40.99;100476.45;1775202;80;21365;-78
2021/06/28 08:38:37;;;;;;;6.80;6.25;;;;;;;34.03;40.90;100476.25;1775296;80;21358;-74
2021/06/28 08:41:05;;;;;;;8.80;6.70;;;;;;;34.03;41.18;100485.77;1775134;80;20923;-78
2021/06/28 08:43:32;;;;;;;7.08;6.47;;;;;;;34.05;40.47;100479.54;1775295;80;21198;-77
2021/06/28 08:45:59;;;;;;;6.67;6.17;;;;;;;33.90;40.81;100488.03;1775341;80;21005;-80
2021/06/28 08:48:26;;;;;;;6.90;6.40;;;;;;;33.96;40.74;100485.68;1775139;80;20928;-76
2021/06/28 08:50:54;;;;;;;6.80;6.30;;;;;;;34.09;41.24;100481.23;1775374;80;20944;-75
2021/06/28 08:53:22;;;;;;;7.35;6.75;;;;;;;34.17;41.75;100482.71;1775133;80;20968;-75
2021/06/28 08:55:51;;;;;;;7.35;6.65;;;;;;;34.34;40.73;100488.11;1775227;80;21573;-74
2021/06/28 08:58:19;;;;;;;7.15;6.47;;;;;;;34.23;40.68;100488.52;1775169;80;20892;-69
2021/06/28 09:00:47;;;;;;;7.03;6.50;;;;;;;34.12;41.01;100487.55;1775112;80;20928;-71
2021/06/28 09:03:14;;;;;;;7.53;7.03;;;;;;;34.05;41.21;100491.79;1775200;80;20939;-71
2021/06/28 09:05:56;;;;;;;9.13;7.17;;;;;;;34.09;41.46;100488.04;1775498;80;20904;-73
2021/06/28 09:08:26;;;;;;;9.38;7.15;;;;;;;34.23;41.64;100493.96;1775286;80;21801;-72
2021/06/28 09:10:51;;;;;;;7.20;6.47;;;;;;;34.34;41.59;100493.02;1774769;80;20936;-78
2021/06/28 09:13:18;;;;;;;7.30;6.33;;;;;;;34.31;40.61;100488.09;1775257;80;20888;-74
2021/06/28 09:15:50;;;;;;;7.30;6.65;;;;;;;34.36;40.32;100494.13;1775774;80;20889;-73
2021/06/28 09:18:30;;;;;;;6.80;6.30;;;;;;;34.47;40.26;100501.35;1775616;80;20933;-75
2021/06/28 09:21:08;;;;;;;7.12;6.45;;;;;;;34.65;40.00;100496.14;1777199;80;21142;-74
2021/06/28 09:23:40;;;;;;;6.25;5.78;;;;;;;34.61;40.02;100493.06;1783875;80;20892;-71
2021/06/28 09:26:14;;;;;;;7.45;6.47;;;;;;;34.56;40.11;100497.64;1784063;80;20860;-74
2021/06/28 09:28:44;;;;;;;12.95;7.05;;;;;;;34.43;40.29;100489.31;1784160;80;21460;-71
2021/06/28 09:31:19;;;;;;;13.00;7.67;;;;;;;34.41;39.96;100497.73;1784052;80;20983;-72
2021/06/28 09:34:06;;;;;;;7.00;5.97;;;;;;;34.41;40.31;100494.19;1775018;80;20960;-72
2021/06/28 09:36:46;;;;;;;7.78;6.87;;;;;;;34.33;40.10;100491.89;1783330;80;21015;-72
2021/06/28 09:39:29;;;;;;;8.28;7.67;;;;;;;34.09;40.35;100488.58;1783437;80;20980;-72
2021/06/28 09:42:12;;;;;;;6.92;6.33;;;;;;;33.78;40.87;100490.32;1783486;80;20912;-73
2021/06/28 09:44:59;;;;;;;;;;;;;;;33.38;41.94;100495.38;1786282;80;20979;-77
2021/06/28 09:47:33;;;;;;;13.78;7.37;;;;;;;32.98;42.87;100498.17;1783505;80;21150;-75
2021/06/28 09:50:13;;;;;;;9.15;8.18;;;;;;;32.54;43.25;100500.05;1778562;80;21404;-74
2021/06/28 09:52:50;;;;;;;7.33;6.55;;;;;;;32.11;44.21;100497.22;1783426;80;21445;-78
2021/06/28 09:55:29;;;;;;;7.75;7.05;;;;;;;31.92;45.41;100495.66;1783272;80;21453;-75
2021/06/28 09:58:17;;;;;;;7.20;6.80;;;;;;;31.71;46.08;100510.65;1783462;80;20880;-77
2021/06/28 10:00:49;;;;;;;7.83;7.12;;;;;;;31.61;46.95;100501.72;1782472;80;21003;-76
2021/06/28 10:03:41;;;;;;;8.73;7.65;;;;;;;31.80;47.20;100494.31;1783295;80;20940;-75
2021/06/28 10:06:16;;;;;;;12.40;11.03;;;;;;;32.10;46.75;100483.88;1783724;80;20943;-79
2021/06/28 10:08:45;;;;;;;10.88;10.00;;;;;;;32.55;45.86;100481.34;1783683;80;20995;-78
2021/06/28 10:11:23;;;;;;;8.63;7.55;;;;;;;32.87;44.08;100484.94;1784184;80;20900;-80
2021/06/28 10:14:00;;;;;;;7.67;7.00;;;;;;;33.07;43.14;100485.05;1783805;80;21131;-79
2021/06/28 10:16:32;;;;;;;7.95;7.15;;;;;;;33.16;43.38;100479.50;1783517;80;20868;-79
2021/06/28 10:19:00;;;;;;;6.53;6.12;;;;;;;33.04;42.97;100489.88;1783572;80;21539;-80
2021/06/28 10:21:27;;;;;;;7.95;7.15;;;;;;;32.92;42.43;100490.99;1781255;80;20940;-78
2021/06/28 10:23:54;;;;;;;7.33;6.65;;;;;;;32.76;42.43;100496.13;1775232;80;21034;-74
2021/06/28 10:26:22;;;;;;;7.08;6.47;;;;;;;32.81;42.32;100489.97;1775562;80;21060;-77
2021/06/28 10:28:48;;;;;;;12.75;9.00;;;;;;;32.94;43.07;100484.78;1775282;80;21128;-78
2021/06/28 10:31:15;;;;;;;8.73;7.92;;;;;;;33.19;42.74;100488.52;1775602;80;20967;-79
2021/06/28 10:33:46;;;;;;;7.85;6.33;;;;;;;33.51;42.65;100496.13;1775450;80;20944;-78
2021/06/28 10:36:14;;;;;;;6.97;5.37;;;;;;;33.53;41.86;100499.40;1775673;80;20928;-78
2021/06/28 10:38:53;;;;;;;5.58;5.03;;;;;;;33.49;41.55;100500.45;1775595;80;21740;-76
2021/06/28 10:41:43;;;;;;;5.85;5.35;;;;;;;33.45;41.32;100500.11;1775604;80;20944;-77
2021/06/28 10:44:13;;;;;;;5.53;5.03;;;;;;;33.51;41.41;100492.05;1775403;80;21002;-79
2021/06/28 10:46:45;;;;;;;6.30;5.42;;;;;;;33.63;40.81;100488.19;1775703;80;20967;-77
2021/06/28 10:49:13;;;;;;;6.55;5.65;;;;;;;33.90;40.69;100490.75;1780108;80;20896;-78
2021/06/28 10:51:46;;;;;;;6.03;5.42;;;;;;;34.13;40.38;100495.17;1776033;80;20997;-81
2021/06/28 10:54:21;;;;;;;14.87;10.45;;;;;;;34.34;39.90;100499.00;1775405;80;20967;-81
2021/06/28 10:56:50;;;;;;;15.48;12.88;;;;;;;34.45;39.74;100498.88;1775926;80;20916;-76
2021/06/28 10:59:20;;;;;;;17.00;11.15;;;;;;;34.64;39.42;100505.37;1775546;80;20896;-71
2021/06/28 11:01:58;;;;;;;15.05;13.35;;;;;;;34.60;39.13;100498.78;1775419;80;20928;-78
2021/06/28 11:04:32;;;;;;;12.68;10.00;;;;;;;34.61;39.58;100488.16;1775676;80;21121;-77
2021/06/28 11:07:06;;;;;;;9.93;7.78;;;;;;;34.71;39.58;100486.95;1775481;80;21031;-82
2021/06/28 11:09:39;;;;;;;11.00;8.10;;;;;;;34.76;39.08;100491.63;1775271;80;20898;-75
2021/06/28 11:12:22;;;;;;;10.48;7.50;;;;;;;34.83;38.44;100499.05;1775470;80;20904;-76
2021/06/28 11:14:58;;;;;;;7.12;6.60;;;;;;;34.81;38.68;100498.48;1775638;80;21469;-76
2021/06/28 11:17:56;;;;;;;7.65;6.60;;;;;;;34.80;38.40;100504.48;1775283;80;21781;-75
2021/06/28 11:20:39;;;;;;;9.68;7.72;;;;;;;34.77;38.17;100493.27;1775367;80;20900;-82
2021/06/28 11:23:16;;;;;;;11.73;8.65;;;;;;;34.56;38.87;100488.92;1775223;80;20929;-83
2021/06/28 11:25:52;;;;;;;12.73;10.88;;;;;;;34.40;39.47;100493.38;1775172;80;20944;-79
2021/06/28 11:28:36;;;;;;;16.87;13.25;;;;;;;34.30;39.83;100495.14;1775556;80;20976;-79
2021/06/28 11:31:10;;;;;;;21.07;14.80;;;;;;;34.11;39.57;100495.99;1775553;80;21971;-79